Data for 01/11/2011

Time Sea-Level Adjusted Pressure Absolute Pressure Temperature Relative Humidity Dew Point   
(mb) (inHg) (mb) (inHg) (C) (F) (%) (C) (F)
00:05 1025 30.27 855 25.25 -20.3 -4.5 73 -24 -11.1
00:10 1025 30.27 854 25.22 -20.1 -4.2 72 -23.9 -11
00:15 1025 30.27 854 25.22 -20 -3.9 73 -23.7 -10.6
00:20 1025 30.27 854 25.22 -19.8 -3.7 72 -23.6 -10.5
00:25 1025 30.27 854 25.22 -19.7 -3.5 73 -23.5 -10.2
00:30 1025 30.27 854 25.22 -19.7 -3.5 72 -23.5 -10.3
00:35 1025 30.27 854 25.22 -19.8 -3.6 72 -23.5 -10.4
00:40 1025 30.27 854 25.22 -19.8 -3.6 72 -23.6 -10.4
00:45 1025 30.27 854 25.22 -19.8 -3.7 72 -23.7 -10.6
00:50 1025 30.27 854 25.22 -20 -3.9 73 -23.7 -10.6
00:55 1025 30.27 854 25.22 -20 -3.9 73 -23.7 -10.7
01:00 1025 30.27 854 25.22 -20.1 -4.1 73 -23.8 -10.8
01:05 1025 30.27 854 25.22 -20 -4 73 -23.7 -10.6
01:10 1025 30.27 854 25.22 -19.9 -3.8 72 -23.7 -10.6
01:15 1025 30.27 854 25.22 -19.8 -3.7 73 -23.5 -10.3
01:20 1025 30.27 854 25.22 -19.7 -3.5 72 -23.5 -10.3
01:25 1025 30.27 854 25.22 -19.6 -3.3 73 -23.4 -10
01:30 1025 30.27 854 25.22 -19.5 -3.2 73 -23.3 -9.9
01:35 1025 30.27 854 25.22 -19.4 -3 73 -23.2 -9.7
01:40 1025 30.27 854 25.22 -19.3 -2.8 72 -23.2 -9.8
01:45 1025 30.27 854 25.22 -19.3 -2.7 71 -23.2 -9.8
01:50 1025 30.27 854 25.22 -19.2 -2.5 72 -23 -9.4
01:55 1025 30.27 854 25.22 -19.1 -2.4 71 -23.1 -9.6
02:00 1025 30.27 854 25.22 -19.1 -2.3 71 -23.1 -9.6
02:05 1025 30.27 855 25.25 -19.1 -2.4 71 -23.2 -9.7
02:10 1025 30.27 855 25.25 -19 -2.2 73 -22.7 -8.9
02:15 1025 30.27 855 25.25 -18.9 -2 71 -22.9 -9.2
02:20 1025 30.27 855 25.25 -18.8 -1.9 70 -23 -9.4
02:25 1026 30.3 855 25.25 -18.9 -1.9 69 -23.2 -9.7
02:30 1026 30.3 855 25.25 -18.9 -1.9 71 -22.9 -9.2
02:35 1026 30.3 855 25.25 -18.8 -1.9 71 -22.8 -9.1
02:40 1026 30.3 855 25.25 -18.8 -1.8 70 -22.9 -9.2
02:45 1026 30.3 855 25.25 -18.8 -1.9 71 -22.9 -9.2
02:50 1026 30.3 855 25.25 -18.8 -1.9 70 -23 -9.4
02:55 1026 30.3 855 25.25 -18.9 -2 71 -23 -9.3
03:00 1025 30.27 855 25.25 -18.8 -1.9 71 -22.9 -9.2
03:05 1025 30.27 855 25.25 -18.8 -1.8 71 -22.8 -9
03:10 1026 30.3 855 25.25 -18.7 -1.7 72 -22.6 -8.7
03:15 1026 30.3 855 25.25 -18.8 -1.9 72 -22.7 -8.8
03:20 1026 30.3 855 25.25 -19 -2.2 72 -22.8 -9.1
03:25 1026 30.3 855 25.25 -19.2 -2.5 72 -23 -9.4
03:30 1025 30.27 855 25.25 -19.2 -2.6 73 -23 -9.4
03:35 1026 30.3 855 25.25 -19.3 -2.7 73 -23 -9.3
03:40 1026 30.3 855 25.25 -19.3 -2.7 74 -22.8 -9.1
03:45 1026 30.3 855 25.25 -19.2 -2.6 73 -22.9 -9.1
03:50 1026 30.3 855 25.25 -19.1 -2.3 72 -22.9 -9.1
03:55 1026 30.3 855 25.25 -18.9 -2 71 -22.9 -9.2
04:00 1026 30.3 855 25.25 -18.9 -2 71 -22.8 -9.1
04:05 1026 30.3 855 25.25 -18.9 -2 72 -22.7 -8.9
04:10 1026 30.3 855 25.25 -19 -2.2 74 -22.5 -8.5
04:15 1026 30.3 855 25.25 -19.1 -2.3 74 -22.6 -8.6
04:20 1026 30.3 855 25.25 -19.2 -2.5 76 -22.5 -8.4
04:25 1025 30.27 855 25.25 -19.2 -2.6 75 -22.6 -8.7
04:30 1025 30.27 855 25.25 -19.2 -2.6 76 -22.5 -8.5
04:35 1025 30.27 855 25.25 -19.4 -2.8 77 -22.5 -8.5
04:40 1025 30.27 855 25.25 -19.4 -2.8 76 -22.6 -8.7
04:45 1025 30.27 854 25.22 -19.6 -3.2 78 -22.6 -8.6
04:50 1025 30.27 855 25.25 -19.8 -3.6 78 -22.7 -8.9
04:55 1025 30.27 854 25.22 -19.9 -3.7 78 -22.8 -9.1
05:00 1025 30.27 854 25.22 -19.5 -3 76 -22.7 -8.9
05:05 1025 30.27 854 25.22 -19.4 -2.9 75 -22.7 -8.8
05:10 1025 30.27 854 25.22 -19.4 -2.8 75 -22.7 -8.8
05:15 1025 30.27 854 25.22 -19.5 -3 76 -22.6 -8.8
05:20 1025 30.27 854 25.22 -19.4 -3 76 -22.7 -8.9
05:25 1025 30.27 854 25.22 -19.4 -3 76 -22.7 -8.9
05:30 1025 30.27 854 25.22 -19.5 -3.1 76 -22.6 -8.8
05:35 1025 30.27 854 25.22 -19.6 -3.3 77 -22.7 -8.9
05:40 1025 30.27 854 25.22 -19.7 -3.5 77 -22.7 -8.9
05:45 1025 30.27 854 25.22 -19.7 -3.5 78 -22.7 -8.8
05:50 1025 30.27 854 25.22 -19.7 -3.4 77 -22.7 -8.8
05:55 1025 30.27 854 25.22 -19.5 -3.2 77 -22.6 -8.7
06:00 1025 30.27 854 25.22 -19.5 -3.1 76 -22.7 -8.8
06:05 1025 30.27 854 25.22 -19.4 -2.9 75 -22.7 -8.9
06:10 1025 30.27 854 25.22 -19.4 -3 75 -22.8 -9
06:15 1025 30.27 854 25.22 -19.6 -3.3 76 -22.8 -9.1
06:20 1025 30.27 854 25.22 -19.5 -3.2 76 -22.7 -8.9
06:25 1025 30.27 855 25.25 -19.4 -3 76 -22.6 -8.7
06:30 1025 30.27 855 25.25 -19.5 -3.2 78 -22.5 -8.5
06:35 1025 30.27 854 25.22 -19.7 -3.5 77 -22.8 -9.1
06:40 1025 30.27 854 25.22 -20.2 -4.3 78 -23.1 -9.5
06:45 1025 30.27 854 25.22 -20.4 -4.7 81 -22.9 -9.2
06:50 1025 30.27 855 25.25 -20.1 -4.1 81 -22.6 -8.7
06:55 1025 30.27 855 25.25 -19.8 -3.6 81 -22.3 -8.2
07:00 1025 30.27 855 25.25 -19.7 -3.4 80 -22.3 -8.2
07:05 1025 30.27 855 25.25 -19.6 -3.3 79 -22.4 -8.3
07:10 1025 30.27 855 25.25 -19.4 -2.9 78 -22.3 -8.1
07:15 1025 30.27 855 25.25 -19.2 -2.6 77 -22.3 -8.1
07:20 1025 30.27 855 25.25 -19.1 -2.4 76 -22.3 -8.2
07:25 1025 30.27 855 25.25 -19 -2.2 76 -22.3 -8.1
07:30 1025 30.27 855 25.25 -19.1 -2.3 77 -22.2 -7.9
07:35 1026 30.3 855 25.25 -19.1 -2.3 76 -22.3 -8.2
07:40 1026 30.3 855 25.25 -19 -2.2 77 -22.2 -7.9
07:45 1026 30.3 855 25.25 -18.9 -2.1 76 -22.1 -7.9
07:50 1026 30.3 855 25.25 -18.9 -1.9 77 -22 -7.6
07:55 1026 30.3 855 25.25 -18.7 -1.7 77 -21.8 -7.2
08:00 1026 30.3 855 25.25 -18.7 -1.6 77 -21.8 -7.2
08:05 1026 30.3 855 25.25 -18.7 -1.7 77 -21.8 -7.3
08:10 1026 30.3 855 25.25 -18.7 -1.6 76 -21.9 -7.5
08:15 1026 30.3 855 25.25 -18.6 -1.4 76 -21.8 -7.3
08:20 1026 30.3 855 25.25 -18.5 -1.2 76 -21.8 -7.2
08:25 1026 30.3 855 25.25 -18.2 -0.7 76 -21.4 -6.5
08:30 1026 30.3 855 25.25 -17.7 0.1 73 -21.5 -6.7
08:35 1026 30.3 855 25.25 -17.3 0.9 70 -21.5 -6.7
08:40 1026 30.3 855 25.25 -16.9 1.5 68 -21.5 -6.6
08:45 1026 30.3 855 25.25 -16.7 1.9 69 -21.1 -6
08:50 1026 30.3 855 25.25 -16.4 2.6 68 -21 -5.8
08:55 1026 30.3 855 25.25 -16.1 3 66 -21 -5.8
09:00 1026 30.3 855 25.25 -16.5 2.4 67 -21.2 -6.1
09:05 1026 30.3 855 25.25 -16.4 2.4 66 -21.5 -6.7
09:10 1026 30.3 855 25.25 -16.3 2.6 66 -21.4 -6.4
09:15 1026 30.3 855 25.25 -16.2 2.8 64 -21.5 -6.8
09:20 1026 30.3 855 25.25 -16.3 2.7 64 -21.6 -6.9
09:25 1026 30.3 855 25.25 -16.1 3.1 63 -21.6 -6.9
09:30 1026 30.3 855 25.25 -16.2 2.8 62 -21.9 -7.4
09:35 1026 30.3 855 25.25 -16.3 2.6 62 -21.9 -7.4
09:40 1026 30.3 855 25.25 -16.2 2.9 62 -21.8 -7.3
09:45 1026 30.3 855 25.25 -16.4 2.4 62 -22.2 -7.9
09:50 1026 30.3 855 25.25 -16.4 2.4 62 -22.1 -7.8
09:55 1026 30.3 855 25.25 -16 3.2 60 -22.2 -7.9
10:00 1026 30.3 855 25.25 -16.3 2.8 61 -22.2 -8
10:05 1026 30.3 855 25.25 -15.8 3.5 59 -22.2 -7.9
10:10 1026 30.3 855 25.25 -16.2 2.8 62 -21.9 -7.5
10:15 1026 30.3 855 25.25 -16.2 2.8 62 -21.9 -7.4
10:20 1026 30.3 855 25.25 -15.9 3.3 61 -21.9 -7.4
10:25 1026 30.3 855 25.25 -15.1 4.7 59 -21.4 -6.5
10:30 1026 30.3 855 25.25 -15.3 4.5 60 -21.4 -6.4
10:35 1026 30.3 855 25.25 -15.3 4.5 60 -21.4 -6.4
10:40 1026 30.3 855 25.25 -14.7 5.6 58 -21.2 -6.1
10:45 1026 30.3 855 25.25 -14.4 6.1 56 -21.3 -6.3
10:50 1026 30.3 855 25.25 -15.1 4.8 59 -21.3 -6.4
10:55 1026 30.3 855 25.25 -15.2 4.6 58 -21.7 -7
11:00 1025 30.27 855 25.25 -14.8 5.3 58 -21.3 -6.3
11:05 1025 30.27 855 25.25 -15 5.1 59 -21.3 -6.3
11:10 1025 30.27 854 25.22 -14.6 5.7 58 -21.2 -6.1
11:15 1025 30.27 854 25.22 -14.3 6.3 56 -21.3 -6.4
11:20 1025 30.27 854 25.22 -14.8 5.3 61 -20.8 -5.5
11:25 1025 30.27 854 25.22 -14.5 5.8 60 -20.8 -5.4
11:30 1025 30.27 854 25.22 -13.7 7.4 55 -21 -5.8
11:35 1025 30.27 854 25.22 -12.9 8.7 52 -20.9 -5.6
11:40 1025 30.27 854 25.22 -12.4 9.6 51 -20.6 -5.1
11:45 1025 30.27 854 25.22 -12.8 8.9 55 -20.1 -4.2
11:50 1025 30.27 854 25.22 -13.2 8.3 54 -20.7 -5.3
11:55 1025 30.27 854 25.22 -13.7 7.4 55 -20.8 -5.5
12:00 1025 30.27 854 25.22 -14 6.9 58 -20.6 -5.1
12:05 1025 30.27 854 25.22 -13.5 7.7 57 -20.4 -4.7
12:10 1025 30.27 854 25.22 -13.1 8.5 53 -20.7 -5.3
12:15 1025 30.27 854 25.22 -12.7 9.2 53 -20.3 -4.5
12:20 1025 30.27 854 25.22 -12.5 9.5 52 -20.5 -4.8
12:25 1025 30.27 854 25.22 -12.4 9.8 52 -20.3 -4.5
12:30 1025 30.27 854 25.22 -12.4 9.6 52 -20.5 -4.8
12:35 1025 30.27 854 25.22 -13 8.5 55 -20.4 -4.7
12:40 1025 30.27 854 25.22 -12.6 9.4 51 -20.8 -5.4
12:45 1025 30.27 854 25.22 -12.6 9.4 53 -20.2 -4.4
12:50 1025 30.27 854 25.22 -12.1 10.3 52 -20.1 -4.1
12:55 1024 30.24 854 25.22 -12 10.3 52 -20 -4
13:00 1024 30.24 854 25.22 -12 10.4 51 -20.2 -4.3
13:05 1024 30.24 853 25.19 -12 10.3 50 -20.5 -4.9
13:10 1024 30.24 853 25.19 -12.3 9.9 52 -20.4 -4.7
13:15 1024 30.24 853 25.19 -12.5 9.5 51 -20.8 -5.4
13:20 1024 30.24 853 25.19 -12.4 9.6 52 -20.3 -4.6
13:25 1024 30.24 853 25.19 -11.7 10.9 50 -20.2 -4.4
13:30 1024 30.24 853 25.19 -11.6 11.2 48 -20.6 -5
13:35 1024 30.24 853 25.19 -11.6 11.2 47 -20.8 -5.4
13:40 1024 30.24 853 25.19 -11.1 11.9 45 -20.9 -5.6
13:45 1024 30.24 853 25.19 -11.1 12 49 -19.9 -3.9
13:50 1024 30.24 853 25.19 -10.8 12.6 46 -20.3 -4.6
13:55 1024 30.24 853 25.19 -11.4 11.6 49 -20 -4
14:00 1023 30.21 853 25.19 -11.4 11.4 49 -20.1 -4.2
14:05 1023 30.21 853 25.19 -11.1 12 48 -20.1 -4.1
14:10 1023 30.21 853 25.19 -11.6 11.2 49 -20.2 -4.3
14:15 1023 30.21 853 25.19 -12.1 10.2 52 -20.2 -4.3
14:20 1023 30.21 853 25.19 -11.9 10.6 53 -19.8 -3.6
14:25 1023 30.21 853 25.19 -11.5 11.3 50 -20 -4.1
14:30 1023 30.21 853 25.19 -11.4 11.4 50 -19.9 -3.8
14:35 1023 30.21 853 25.19 -11.5 11.4 50 -19.9 -3.7
14:40 1023 30.21 853 25.19 -11.4 11.5 48 -20.4 -4.7
14:45 1024 30.24 853 25.19 -11.4 11.4 49 -20.1 -4.3
14:50 1023 30.21 853 25.19 -11.6 11.2 51 -19.7 -3.4
14:55 1023 30.21 853 25.19 -11.8 10.7 50 -20.2 -4.3
15:00 1024 30.24 853 25.19 -11.7 11 49 -20.3 -4.5
15:05 1024 30.24 853 25.19 -11.9 10.7 51 -20.1 -4.1
15:10 1024 30.24 853 25.19 -12 10.4 51 -20.2 -4.4
15:15 1024 30.24 853 25.19 -12.1 10.2 52 -20 -4
15:20 1024 30.24 853 25.19 -11.8 10.7 51 -20 -4.1
15:25 1024 30.24 853 25.19 -11.8 10.9 51 -19.9 -3.8
15:30 1024 30.24 853 25.19 -11.9 10.6 52 -19.9 -3.8
15:35 1024 30.24 853 25.19 -12 10.4 51 -20.1 -4.2
15:40 1024 30.24 853 25.19 -11.8 10.7 50 -20.4 -4.7
15:45 1024 30.24 853 25.19 -12.2 10 53 -19.9 -3.8
15:50 1024 30.24 853 25.19 -12.2 10.1 52 -20.2 -4.4
15:55 1024 30.24 853 25.19 -11.8 10.7 50 -20.3 -4.5
16:00 1024 30.24 853 25.19 -12.2 10 52 -20.2 -4.4
16:05 1024 30.24 853 25.19 -12.2 10.1 51 -20.3 -4.6
16:10 1024 30.24 853 25.19 -12.3 9.9 53 -20.1 -4.3
16:15 1024 30.24 853 25.19 -12.4 9.7 53 -20.2 -4.3
16:20 1024 30.24 853 25.19 -12.8 8.9 55 -20.1 -4.1
16:25 1024 30.24 853 25.19 -13.1 8.4 55 -20.3 -4.5
16:30 1024 30.24 853 25.19 -13.5 7.7 56 -20.5 -4.9
16:35 1024 30.24 853 25.19 -13.7 7.3 57 -20.4 -4.8
16:40 1024 30.24 853 25.19 -13.8 7.2 58 -20.4 -4.8
16:45 1024 30.24 853 25.19 -14.2 6.4 59 -20.6 -5.1
16:50 1024 30.24 853 25.19 -14.8 5.4 61 -20.7 -5.3
16:55 1024 30.24 853 25.19 -15 5.1 62 -20.8 -5.4
17:00 1024 30.24 853 25.19 -15 5 64 -20.4 -4.8
17:05 1024 30.24 853 25.19 -15.2 4.7 65 -20.3 -4.6
17:10 1024 30.24 853 25.19 -15.3 4.4 66 -20.2 -4.4
17:15 1024 30.24 853 25.19 -15.5 4.2 68 -20.2 -4.3
17:20 1024 30.24 853 25.19 -15.6 3.9 67 -20.4 -4.7
17:25 1024 30.24 853 25.19 -15.9 3.5 68 -20.6 -5
17:30 1024 30.24 853 25.19 -15.9 3.3 69 -20.4 -4.7
17:35 1024 30.24 853 25.19 -15.9 3.3 68 -20.5 -4.9
17:40 1024 30.24 853 25.19 -16.1 3 69 -20.6 -5.1
17:45 1024 30.24 853 25.19 -16.6 2 71 -20.8 -5.4
17:50 1024 30.24 853 25.19 -16.7 2 70 -20.9 -5.6
17:55 1024 30.24 853 25.19 -16.8 1.7 71 -21 -5.8
18:00 1024 30.24 853 25.19 -17 1.5 72 -20.9 -5.6
18:05 1024 30.24 853 25.19 -16.7 1.9 72 -20.7 -5.3
18:10 1024 30.24 853 25.19 -16.4 2.4 70 -20.7 -5.3
18:15 1023 30.21 853 25.19 -16.5 2.3 70 -20.7 -5.3
18:20 1023 30.21 853 25.19 -16.7 2 71 -20.8 -5.5
18:25 1023 30.21 853 25.19 -16.8 1.8 71 -20.9 -5.6
18:30 1023 30.21 853 25.19 -16.8 1.7 71 -20.9 -5.6
18:35 1023 30.21 852 25.16 -16.7 2 70 -20.9 -5.6
18:40 1023 30.21 852 25.16 -16.6 2.1 71 -20.7 -5.3
18:45 1023 30.21 852 25.16 -16.4 2.5 70 -20.7 -5.2
18:50 1023 30.21 853 25.19 -16.4 2.4 72 -20.4 -4.7
18:55 1023 30.21 853 25.19 -16.5 2.4 72 -20.4 -4.7
19:00 1023 30.21 853 25.19 -16.7 1.9 74 -20.4 -4.8
19:05 1023 30.21 853 25.19 -16.8 1.8 75 -20.2 -4.3
19:10 1023 30.21 853 25.19 -16.7 1.9 77 -19.9 -3.8
19:15 1023 30.21 853 25.19 -16.5 2.3 76 -19.8 -3.7
19:20 1023 30.21 853 25.19 -16.5 2.3 77 -19.7 -3.4
19:25 1023 30.21 853 25.19 -16.4 2.6 75 -19.8 -3.6
19:30 1023 30.21 853 25.19 -16.3 2.7 77 -19.4 -3
19:35 1023 30.21 852 25.16 -16 3.1 75 -19.5 -3
19:40 1023 30.21 852 25.16 -16 3.2 77 -19.2 -2.5
19:45 1023 30.21 852 25.16 -15.9 3.4 76 -19.3 -2.7
19:50 1023 30.21 852 25.16 -16 3.3 74 -19.6 -3.3
19:55 1023 30.21 852 25.16 -16.3 2.7 77 -19.5 -3
20:00 1023 30.21 852 25.16 -16.1 3 77 -19.2 -2.6
20:05 1023 30.21 852 25.16 -15.8 3.5 76 -19.1 -2.4
20:10 1023 30.21 852 25.16 -15.7 3.7 75 -19.2 -2.6
20:15 1023 30.21 852 25.16 -15.9 3.4 77 -19.1 -2.4
20:20 1023 30.21 852 25.16 -16 3.2 77 -19.1 -2.4
20:25 1023 30.21 852 25.16 -16.5 2.4 78 -19.5 -3.1
20:30 1023 30.21 852 25.16 -16.3 2.8 80 -18.9 -2
20:35 1023 30.21 852 25.16 -16.2 2.8 77 -19.3 -2.8
20:40 1023 30.21 852 25.16 -16.5 2.4 80 -19.1 -2.4
20:45 1023 30.21 852 25.16 -16.4 2.6 80 -19.1 -2.4
20:50 1023 30.21 852 25.16 -16.2 2.9 80 -18.8 -1.9
20:55 1023 30.21 852 25.16 -15.8 3.6 81 -18.3 -1
21:00 1023 30.21 852 25.16 -15.6 3.9 77 -18.8 -1.8
21:05 1023 30.21 853 25.19 -15.8 3.5 80 -18.5 -1.4
21:10 1023 30.21 853 25.19 -15.5 4.1 80 -18.3 -0.9
21:15 1023 30.21 853 25.19 -15.6 4 79 -18.5 -1.2
21:20 1023 30.21 853 25.19 -15.8 3.5 79 -18.7 -1.6
21:25 1023 30.21 853 25.19 -16 3.2 80 -18.7 -1.7
21:30 1023 30.21 853 25.19 -16 3.3 78 -18.9 -2
21:35 1023 30.21 853 25.19 -16.2 2.9 79 -19.1 -2.3
21:40 1023 30.21 853 25.19 -16.4 2.5 81 -18.9 -2.1
21:45 1023 30.21 853 25.19 -16.4 2.5 82 -18.9 -1.9
21:50 1023 30.21 853 25.19 -16.4 2.5 83 -18.7 -1.6
21:55 1023 30.21 853 25.19 -16.2 2.9 84 -18.2 -0.8
22:00 1023 30.21 853 25.19 -15.8 3.6 84 -17.9 -0.3
22:05 1023 30.21 853 25.19 -15.6 3.8 82 -18.1 -0.6
22:10 1023 30.21 853 25.19 -15.4 4.2 80 -18.2 -0.7
22:15 1023 30.21 852 25.16 -15.3 4.4 79 -18.2 -0.7
22:20 1023 30.21 852 25.16 -15.4 4.3 79 -18.3 -1
22:25 1023 30.21 852 25.16 -15.3 4.4 79 -18.2 -0.8
22:30 1023 30.21 852 25.16 -15.1 4.9 79 -18 -0.4
22:35 1023 30.21 852 25.16 -14.8 5.4 77 -17.9 -0.3
22:40 1023 30.21 852 25.16 -14.7 5.6 77 -17.8 -0.1
22:45 1023 30.21 852 25.16 -14.4 6 76 -17.8 -0
22:50 1023 30.21 852 25.16 -14.3 6.2 76 -17.8 0
22:55 1023 30.21 852 25.16 -14.6 5.7 78 -17.7 0.2
23:00 1023 30.21 852 25.16 -14.8 5.3 80 -17.6 0.3
23:05 1023 30.21 852 25.16 -14.7 5.5 80 -17.5 0.5
23:10 1023 30.21 852 25.16 -14.7 5.6 79 -17.5 0.5
23:15 1023 30.21 852 25.16 -14.6 5.8 79 -17.5 0.6
23:20 1023 30.21 852 25.16 -14.3 6.3 78 -17.3 0.8
23:25 1023 30.21 852 25.16 -14 6.9 77 -17.2 1.1
23:30 1023 30.21 852 25.16 -13.6 7.5 77 -16.9 1.6
23:35 1023 30.21 852 25.16 -13.5 7.8 77 -16.7 1.9
23:40 1023 30.21 852 25.16 -13.2 8.2 76 -16.6 2.2
23:45 1023 30.21 852 25.16 -13.2 8.3 76 -16.6 2.1
23:50 1023 30.21 852 25.16 -13.4 7.8 77 -16.6 2.1
23:55 1023 30.21 852 25.16 -13.6 7.6 77 -16.7 1.9
24:00 1023 30.21 852 25.16 -13.7 7.4 78 -16.7 2